Terminal Aerodrome Forecast
Issued by NWS

Home | Current Version | Previous Version | Text Only | Print | Product List | Glossary On
Versions: 1 2 3 4 5 6 7 8 9 10 11 12 13 14 15 16
699
FTUS43 KOAX 181721
TAFBFF
TAF
KBFF 181721Z 1818/1918 30007KT P6SM FEW250
     FM182300 24007KT P6SM FEW200
     FM190500 31004KT P6SM FEW200=

USA.gov is the U.S. government's official web portal to all federal, state and local government web resources and services.